Time;durP1;ratioP1;P1;durP2;ratioP2;P2;SDS_P1;SDS_P2;PMS_P1;PMS_P2;Temp;Humidity;BMP_temperature;BMP_pressure;BME280_temperature;BME280_humidity;BME280_pressure;Samples;Min_cycle;Max_cycle;Signal;HPM_P1;HPM_P2
2022/02/14 00:00:30;;;;;;;5.80;4.40;;;;;;;-0.84;100.00;96665.88;4998399;28;20308;-56
2022/02/14 00:02:58;;;;;;;4.67;4.27;;;;;;;-0.83;100.00;96667.53;4974313;28;20232;-52
2022/02/14 00:05:26;;;;;;;5.30;4.90;;;;;;;-1.07;100.00;96665.97;5008257;28;20331;-50
2022/02/14 00:07:55;;;;;;;4.70;4.23;;;;;;;-1.19;100.00;96659.97;4993674;28;20295;-55
2022/02/14 00:10:23;;;;;;;5.70;5.20;;;;;;;-1.19;100.00;96644.38;4991930;28;20248;-55
2022/02/14 00:12:51;;;;;;;5.30;4.80;;;;;;;-1.10;100.00;96663.59;5004778;28;20307;-54
2022/02/14 00:15:22;;;;;;;5.73;5.13;;;;;;;-1.22;100.00;96653.25;4994755;28;20659;-55
2022/02/14 00:17:50;;;;;;;5.23;4.83;;;;;;;-1.08;100.00;96654.75;4967555;28;20240;-52
2022/02/14 00:20:18;;;;;;;4.27;3.87;;;;;;;-1.27;100.00;96642.41;5004709;28;20259;-55
2022/02/14 00:22:47;;;;;;;4.67;4.27;;;;;;;-1.12;100.00;96636.91;4986033;28;20221;-52
2022/02/14 00:25:19;;;;;;;6.33;5.03;;;;;;;-1.12;100.00;96626.50;4989564;28;20208;-55
2022/02/14 00:27:47;;;;;;;5.30;4.73;;;;;;;-1.10;100.00;96627.19;5008536;28;20209;-53
2022/02/14 00:30:17;;;;;;;4.53;4.23;;;;;;;-1.19;100.00;96623.56;5003245;28;20247;-55
2022/02/14 00:32:48;;;;;;;4.40;4.00;;;;;;;-1.11;100.00;96621.19;4965879;28;22038;-52
2022/02/14 00:35:18;;;;;;;4.20;3.80;;;;;;;-1.10;100.00;96622.84;5005221;28;20280;-57
2022/02/14 00:37:48;;;;;;;4.53;4.07;;;;;;;-1.06;100.00;96618.19;4978244;28;20213;-50
2022/02/14 00:40:16;;;;;;;7.27;4.23;;;;;;;-0.81;100.00;96616.19;4988736;28;20244;-56
2022/02/14 00:42:45;;;;;;;5.20;4.70;;;;;;;-0.96;100.00;96616.50;5002354;28;20256;-51
2022/02/14 00:45:14;;;;;;;4.80;4.27;;;;;;;-1.19;100.00;96607.97;5008486;28;20847;-58
2022/02/14 00:47:43;;;;;;;4.67;4.27;;;;;;;-1.29;100.00;96612.28;4964550;28;21293;-53
2022/02/14 00:50:12;;;;;;;4.50;4.10;;;;;;;-1.38;100.00;96608.63;4998807;28;20225;-55
2022/02/14 00:52:40;;;;;;;4.03;3.73;;;;;;;-1.40;100.00;96607.94;5002857;28;20505;-54
2022/02/14 00:55:09;;;;;;;5.90;4.50;;;;;;;-1.62;100.00;96588.88;4992843;28;20471;-57
2022/02/14 00:57:37;;;;;;;5.57;4.50;;;;;;;-1.64;100.00;96611.56;4989857;28;20239;-57
2022/02/14 01:00:09;;;;;;;8.90;4.83;;;;;;;-1.74;100.00;96608.84;5012408;28;20429;-53
2022/02/14 01:02:37;;;;;;;4.80;4.50;;;;;;;-1.82;100.00;96608.63;4964010;28;20235;-54
2022/02/14 01:05:07;;;;;;;4.37;4.03;;;;;;;-1.86;100.00;96609.81;5002216;28;20298;-55
2022/02/14 01:07:37;;;;;;;4.83;4.43;;;;;;;-1.85;100.00;96607.09;5003241;28;20476;-55
2022/02/14 01:10:06;;;;;;;7.60;4.10;;;;;;;-1.94;100.00;96613.00;4983428;28;20307;-54
2022/02/14 01:12:34;;;;;;;5.40;4.50;;;;;;;-2.10;100.00;96609.00;4989832;28;20229;-50
2022/02/14 01:15:05;;;;;;;4.63;4.30;;;;;;;-2.11;100.00;96604.75;5003127;28;20212;-50
2022/02/14 01:17:35;;;;;;;4.60;4.20;;;;;;;-2.04;100.00;96605.94;5003678;28;20224;-50
2022/02/14 01:20:03;;;;;;;4.53;4.13;;;;;;;-2.04;100.00;96605.09;4964087;28;20220;-53
2022/02/14 01:22:32;;;;;;;4.90;4.10;;;;;;;-2.08;100.00;96601.94;5004409;28;20248;-50
2022/02/14 01:25:03;;;;;;;4.63;4.33;;;;;;;-2.09;100.00;96607.25;4989261;28;20209;-53
2022/02/14 01:27:31;;;;;;;8.53;5.03;;;;;;;-2.15;100.00;96605.94;4989184;28;20201;-54
2022/02/14 01:29:59;;;;;;;4.73;4.30;;;;;;;-2.24;100.00;96602.28;5000326;28;20484;-53
2022/02/14 01:32:28;;;;;;;5.60;4.87;;;;;;;-2.31;100.00;96601.09;5001203;28;20405;-54
2022/02/14 01:34:56;;;;;;;5.03;4.43;;;;;;;-2.39;100.00;96606.06;4965130;28;20217;-49
2022/02/14 01:37:24;;;;;;;5.13;4.63;;;;;;;-2.41;100.00;96606.19;5001285;28;20798;-52
2022/02/14 01:39:53;;;;;;;5.30;4.90;;;;;;;-2.39;100.00;96598.25;4991428;28;20236;-54
2022/02/14 01:42:22;;;;;;;6.37;4.43;;;;;;;-2.47;100.00;96593.66;4990814;28;20562;-54
2022/02/14 01:44:52;;;;;;;4.97;4.53;;;;;;;-2.55;100.00;96591.66;4997936;28;20654;-51
2022/02/14 01:47:22;;;;;;;5.63;4.60;;;;;;;-2.52;100.00;96588.84;4999803;28;20221;-56
2022/02/14 01:49:52;;;;;;;5.87;4.53;;;;;;;-2.59;100.00;96584.22;4959830;28;20248;-51
2022/02/14 01:52:21;;;;;;;4.87;4.57;;;;;;;-2.47;100.00;96575.50;4979500;28;20220;-55
2022/02/14 01:54:50;;;;;;;5.20;4.70;;;;;;;-2.73;100.00;96577.47;4982387;28;20244;-52
2022/02/14 01:57:19;;;;;;;4.40;4.10;;;;;;;-2.94;100.00;96573.78;4987123;28;20786;-50
2022/02/14 01:59:49;;;;;;;7.17;5.20;;;;;;;-2.99;100.00;96570.72;4980267;28;20286;-51
2022/02/14 02:02:17;;;;;;;5.50;5.03;;;;;;;-3.04;100.00;96570.25;5004820;28;20220;-54
2022/02/14 02:04:46;;;;;;;6.50;5.83;;;;;;;-3.23;100.00;96568.19;4979850;28;20258;-55
2022/02/14 02:07:15;;;;;;;6.37;5.87;;;;;;;-3.33;100.00;96577.56;4996260;28;20213;-53
2022/02/14 02:09:44;;;;;;;6.93;5.53;;;;;;;-3.39;100.00;96571.91;5003031;28;20207;-56
2022/02/14 02:12:25;;;;;;;5.53;5.13;;;;;;;-3.46;100.00;96564.69;4983257;28;20314;-53
2022/02/14 02:14:57;;;;;;;6.53;5.60;;;;;;;-3.55;100.00;96566.19;4981078;28;21250;-56
2022/02/14 02:17:28;;;;;;;5.47;4.97;;;;;;;-3.70;100.00;96568.94;5000734;28;20818;-50
2022/02/14 02:19:56;;;;;;;6.90;6.20;;;;;;;-3.88;100.00;96558.13;4970570;28;20251;-58
2022/02/14 02:22:25;;;;;;;5.23;4.80;;;;;;;-3.92;100.00;96556.72;5021554;28;20263;-53
2022/02/14 02:24:56;;;;;;;6.53;5.73;;;;;;;-3.96;100.00;96544.91;5015565;28;20503;-51
2022/02/14 02:27:25;;;;;;;6.83;6.13;;;;;;;-4.02;100.00;96545.34;5004070;28;20933;-55
2022/02/14 02:29:54;;;;;;;6.20;5.63;;;;;;;-4.09;100.00;96557.91;4962752;28;20234;-49
2022/02/14 02:32:22;;;;;;;6.23;5.67;;;;;;;-4.16;100.00;96547.16;4986967;28;20228;-54
2022/02/14 02:34:51;;;;;;;4.73;4.33;;;;;;;-4.17;100.00;96547.25;5001865;28;20551;-55
2022/02/14 02:37:20;;;;;;;6.43;5.07;;;;;;;-3.93;100.00;96544.69;4947071;28;20228;-53
2022/02/14 02:39:48;;;;;;;6.10;5.50;;;;;;;-4.13;100.00;96551.28;4999410;28;21003;-54
2022/02/14 02:42:20;;;;;;;5.57;5.07;;;;;;;-4.21;100.00;96546.66;5002532;28;21037;-57
2022/02/14 02:44:50;;;;;;;5.40;4.90;;;;;;;-4.27;100.00;96547.88;4968975;28;20208;-52
2022/02/14 02:47:20;;;;;;;6.50;5.43;;;;;;;-4.33;100.00;96548.31;5005862;28;20509;-55
2022/02/14 02:49:48;;;;;;;5.20;4.80;;;;;;;-4.32;100.00;96544.81;4998160;28;20502;-54
2022/02/14 02:52:18;;;;;;;5.40;5.00;;;;;;;-4.25;100.00;96543.44;4969206;28;21147;-55
2022/02/14 02:54:47;;;;;;;7.73;6.10;;;;;;;-4.25;100.00;96537.44;5006154;28;20982;-56
2022/02/14 02:57:16;;;;;;;4.33;4.03;;;;;;;-4.27;100.00;96534.16;4999950;28;20493;-53
2022/02/14 02:59:46;;;;;;;6.07;5.57;;;;;;;-4.22;100.00;96532.06;4984180;28;20407;-55
2022/02/14 03:02:14;;;;;;;5.30;4.80;;;;;;;-4.27;100.00;96537.53;4984702;28;20471;-51
2022/02/14 03:04:42;;;;;;;6.20;5.40;;;;;;;-4.34;100.00;96540.69;5004403;28;20205;-53
2022/02/14 03:07:11;;;;;;;5.50;4.67;;;;;;;-4.41;100.00;96535.09;4961323;28;20565;-52
2022/02/14 03:09:39;;;;;;;4.90;4.60;;;;;;;-4.43;100.00;96527.44;5009536;28;20205;-57
2022/02/14 03:12:08;;;;;;;5.73;5.10;;;;;;;-4.53;100.00;96535.03;4999040;28;20771;-53
2022/02/14 03:14:39;;;;;;;6.00;5.60;;;;;;;-4.56;100.00;96531.81;5002401;28;20466;-56
2022/02/14 03:17:12;;;;;;;5.37;4.97;;;;;;;-4.56;100.00;96519.69;4964858;28;21012;-51
2022/02/14 03:19:40;;;;;;;6.73;4.93;;;;;;;-4.67;100.00;96506.69;5005639;28;20243;-55
2022/02/14 03:22:08;;;;;;;5.40;5.00;;;;;;;-4.60;100.00;96520.84;4950998;28;20485;-51
2022/02/14 03:24:37;;;;;;;6.17;5.57;;;;;;;-4.63;100.00;96509.91;5006768;28;20238;-55
2022/02/14 03:27:05;;;;;;;6.53;4.90;;;;;;;-4.60;100.00;96527.78;4998640;28;20262;-53
2022/02/14 03:29:34;;;;;;;5.67;5.17;;;;;;;-4.50;100.00;96521.03;4992945;28;20459;-53
2022/02/14 03:32:02;;;;;;;6.70;6.03;;;;;;;-4.50;100.00;96521.03;4992976;28;20308;-54
2022/02/14 03:34:31;;;;;;;6.27;5.77;;;;;;;-4.52;100.00;96517.75;4991826;28;20545;-52
2022/02/14 03:37:00;;;;;;;6.90;6.30;;;;;;;-4.45;100.00;96523.31;5007683;28;20326;-55
2022/02/14 03:39:28;;;;;;;5.20;4.80;;;;;;;-4.28;100.00;96520.38;4970035;28;20482;-54
2022/02/14 03:41:57;;;;;;;6.00;5.50;;;;;;;-4.28;100.00;96524.72;5007606;28;20723;-53
2022/02/14 03:44:25;;;;;;;6.80;5.57;;;;;;;-4.32;100.00;96518.94;4989144;28;20492;-50
2022/02/14 03:46:53;;;;;;;6.03;5.53;;;;;;;-4.37;100.00;96518.44;4992331;28;20497;-51
2022/02/14 03:49:22;;;;;;;6.57;5.90;;;;;;;-4.26;100.00;96515.09;4956284;28;20572;-50
2022/02/14 03:51:51;;;;;;;6.13;5.53;;;;;;;-4.27;100.00;96514.25;5004081;28;20804;-52
2022/02/14 03:54:19;;;;;;;5.73;5.30;;;;;;;-4.31;100.00;96512.81;4972053;28;20565;-54
2022/02/14 03:56:47;;;;;;;5.30;4.87;;;;;;;-4.40;100.00;96511.69;5004071;28;20459;-52
2022/02/14 03:59:16;;;;;;;5.07;4.73;;;;;;;-4.49;100.00;96514.94;4980837;28;20604;-54
2022/02/14 04:01:46;;;;;;;5.63;5.17;;;;;;;-4.55;100.00;96511.00;4980407;28;20921;-55
2022/02/14 04:04:14;;;;;;;6.13;5.60;;;;;;;-4.61;100.00;96513.22;4987656;28;20556;-52
2022/02/14 04:06:42;;;;;;;4.77;4.37;;;;;;;-4.44;100.00;96509.47;5004592;28;20931;-53
2022/02/14 04:09:12;;;;;;;5.10;4.60;;;;;;;-4.59;100.00;96509.56;4965192;28;20518;-50
2022/02/14 04:11:40;;;;;;;6.53;4.83;;;;;;;-4.69;100.00;96508.56;5001014;28;22134;-55
2022/02/14 04:14:08;;;;;;;5.97;5.47;;;;;;;-4.80;100.00;96504.97;4976225;28;21322;-56
2022/02/14 04:16:37;;;;;;;6.33;5.17;;;;;;;-4.83;100.00;96499.16;5003391;28;20986;-57
2022/02/14 04:19:05;;;;;;;5.90;5.30;;;;;;;-4.87;100.00;96508.06;4975681;28;22099;-54
2022/02/14 04:21:34;;;;;;;6.63;5.97;;;;;;;-4.89;100.00;96494.41;5007431;28;20463;-55
2022/02/14 04:24:02;;;;;;;6.00;5.40;;;;;;;-4.73;100.00;96495.03;5006771;28;20675;-58
2022/02/14 04:26:32;;;;;;;5.70;5.20;;;;;;;-4.66;100.00;96485.06;4967122;28;20984;-56
2022/02/14 04:29:00;;;;;;;6.10;5.03;;;;;;;-4.61;100.00;96485.59;5003661;28;21087;-50
2022/02/14 04:31:30;;;;;;;5.80;5.30;;;;;;;-4.57;100.00;96486.22;5004467;28;20460;-57
2022/02/14 04:34:03;;;;;;;5.30;4.90;;;;;;;-4.48;100.00;96482.97;4963123;28;21283;-48
2022/02/14 04:36:32;;;;;;;6.20;5.70;;;;;;;-4.36;100.00;96483.88;5007746;28;20464;-56
2022/02/14 04:39:00;;;;;;;11.23;7.03;;;;;;;-4.25;100.00;96483.13;5007424;28;20911;-54
2022/02/14 04:41:28;;;;;;;6.90;6.20;;;;;;;-4.21;100.00;96476.78;4962117;28;21524;-52
2022/02/14 04:43:58;;;;;;;6.80;6.07;;;;;;;-4.24;100.00;96483.00;5010064;28;20474;-55
2022/02/14 04:46:26;;;;;;;7.33;5.53;;;;;;;-4.16;100.00;96481.66;5006699;28;20467;-60
2022/02/14 04:48:54;;;;;;;6.63;6.10;;;;;;;-4.05;100.00;96465.34;4986501;28;20548;-54
2022/02/14 04:51:25;;;;;;;6.07;5.53;;;;;;;-4.02;100.00;96467.69;4989925;28;20592;-51
2022/02/14 04:53:53;;;;;;;6.60;6.00;;;;;;;-4.01;100.00;96471.94;5007464;28;20499;-54
2022/02/14 04:56:22;;;;;;;6.10;5.50;;;;;;;-4.01;100.00;96469.34;4965957;28;20554;-50
2022/02/14 04:58:50;;;;;;;7.30;6.10;;;;;;;-4.03;100.00;96461.72;5009409;28;21235;-54
2022/02/14 05:01:20;;;;;;;5.67;5.17;;;;;;;-3.95;100.00;96471.53;5006614;28;20490;-51
2022/02/14 05:03:48;;;;;;;8.30;5.97;;;;;;;-3.83;100.00;96472.38;4986909;28;20586;-55
2022/02/14 05:06:16;;;;;;;6.13;5.63;;;;;;;-3.76;100.00;96468.41;4984866;28;20463;-53
2022/02/14 05:08:45;;;;;;;5.73;5.23;;;;;;;-3.59;100.00;96458.56;5005017;28;20226;-55
2022/02/14 05:11:13;;;;;;;6.23;5.63;;;;;;;-3.54;100.00;96472.00;5005662;28;20554;-53
2022/02/14 05:13:41;;;;;;;6.17;5.67;;;;;;;-3.58;100.00;96468.81;4961781;28;20572;-56
2022/02/14 05:16:10;;;;;;;5.80;5.37;;;;;;;-3.56;100.00;96473.88;5013534;28;20540;-54
2022/02/14 05:18:40;;;;;;;6.37;5.70;;;;;;;-3.59;100.00;96474.94;5001358;28;21028;-56
2022/02/14 05:21:08;;;;;;;6.10;5.60;;;;;;;-3.61;100.00;96465.63;5001567;28;20486;-51
2022/02/14 05:23:36;;;;;;;6.60;6.00;;;;;;;-3.67;100.00;96469.47;4993457;28;20469;-55
2022/02/14 05:26:04;;;;;;;6.77;6.03;;;;;;;-3.80;100.00;96472.97;5005886;28;21068;-56
2022/02/14 05:28:33;;;;;;;6.63;6.03;;;;;;;-3.78;100.00;96468.50;4974556;28;20530;-56
2022/02/14 05:31:01;;;;;;;5.70;5.20;;;;;;;-3.82;100.00;96468.84;5009698;28;20479;-55
2022/02/14 05:33:29;;;;;;;6.23;5.57;;;;;;;-3.95;100.00;96468.94;5004474;28;20534;-56
2022/02/14 05:35:59;;;;;;;6.33;5.83;;;;;;;-4.01;100.00;96464.16;4983762;28;20589;-56
2022/02/14 05:38:27;;;;;;;9.40;5.97;;;;;;;-4.12;100.00;96444.28;4990198;28;21159;-51
2022/02/14 05:40:55;;;;;;;6.30;5.70;;;;;;;-4.16;100.00;96454.00;5010027;28;21025;-50
2022/02/14 05:43:23;;;;;;;6.13;5.53;;;;;;;-4.02;100.00;96463.38;4973176;28;21244;-53
2022/02/14 05:45:51;;;;;;;7.17;5.57;;;;;;;-3.99;100.00;96463.13;5009261;28;20295;-51
2022/02/14 05:48:26;;;;;;;5.97;5.47;;;;;;;-3.99;100.00;96467.47;4984277;28;20782;-53
2022/02/14 05:50:55;;;;;;;6.80;6.07;;;;;;;-3.78;100.00;96476.28;4986690;28;20577;-53
2022/02/14 05:53:26;;;;;;;6.47;5.87;;;;;;;-3.63;100.00;96465.72;4955862;28;20480;-57
2022/02/14 05:55:54;;;;;;;6.10;5.50;;;;;;;-3.61;100.00;96460.44;5008804;28;20305;-51
2022/02/14 05:58:22;;;;;;;5.93;5.43;;;;;;;-3.38;100.00;96459.56;4976441;28;20501;-54
2022/02/14 06:00:51;;;;;;;6.97;6.17;;;;;;;-3.43;100.00;96472.03;5004065;28;20206;-54
2022/02/14 06:03:20;;;;;;;7.63;7.03;;;;;;;-3.46;100.00;96479.22;5005326;28;20487;-54
2022/02/14 06:05:48;;;;;;;6.23;5.73;;;;;;;-3.41;100.00;96477.09;5003083;28;20516;-52
2022/02/14 06:08:17;;;;;;;8.37;6.17;;;;;;;-3.34;100.00;96475.69;4970611;28;20541;-56
2022/02/14 06:10:46;;;;;;;6.80;6.10;;;;;;;-3.18;100.00;96480.56;5005750;28;21041;-53
2022/02/14 06:13:14;;;;;;;7.30;6.33;;;;;;;-3.20;100.00;96466.91;5003197;28;20507;-58
2022/02/14 06:15:43;;;;;;;6.47;5.77;;;;;;;-3.08;100.00;96468.53;4968964;28;20755;-53
2022/02/14 06:18:11;;;;;;;6.43;5.90;;;;;;;-2.99;100.00;96472.22;5005934;28;20581;-55
2022/02/14 06:20:39;;;;;;;6.27;5.77;;;;;;;-3.03;100.00;96475.16;5001885;28;20564;-51
2022/02/14 06:23:08;;;;;;;5.80;5.30;;;;;;;-3.04;100.00;96469.16;4983069;28;21160;-55
2022/02/14 06:25:37;;;;;;;6.03;5.53;;;;;;;-2.92;100.00;96470.00;4977193;28;20463;-55
2022/02/14 06:28:07;;;;;;;6.73;5.67;;;;;;;-2.90;100.00;96468.09;4990804;28;20473;-57
2022/02/14 06:30:36;;;;;;;7.17;5.87;;;;;;;-2.77;100.00;96466.22;4954944;28;21767;-53
2022/02/14 06:33:04;;;;;;;6.97;6.27;;;;;;;-2.88;100.00;96457.59;5002118;28;20562;-58
2022/02/14 06:35:32;;;;;;;5.90;5.30;;;;;;;-2.75;100.00;96458.31;5005365;28;21057;-53
2022/02/14 06:38:01;;;;;;;5.97;5.47;;;;;;;-2.68;100.00;96463.84;5005451;28;20236;-50
2022/02/14 06:40:29;;;;;;;6.07;5.57;;;;;;;-2.62;100.00;96469.38;4973324;28;20233;-54
2022/02/14 06:42:57;;;;;;;5.70;5.30;;;;;;;-2.62;100.00;96466.78;4992000;28;20311;-54
2022/02/14 06:45:27;;;;;;;6.00;5.50;;;;;;;-2.52;100.00;96468.66;4999163;28;20515;-53
2022/02/14 06:47:55;;;;;;;5.90;5.30;;;;;;;-2.44;100.00;96476.69;4969196;28;20549;-57
2022/02/14 06:50:23;;;;;;;7.03;5.73;;;;;;;-2.42;100.00;96476.56;4998706;28;20224;-51
2022/02/14 06:52:51;;;;;;;6.83;5.43;;;;;;;-2.35;100.00;96475.13;5006324;28;20220;-53
2022/02/14 06:55:20;;;;;;;6.37;5.77;;;;;;;-2.35;100.00;96477.72;4975486;28;20303;-53
2022/02/14 06:57:48;;;;;;;5.80;5.17;;;;;;;-2.33;100.00;96476.66;4985852;28;20755;-53
2022/02/14 07:00:16;;;;;;;5.63;5.13;;;;;;;-2.30;100.00;96477.38;5002575;28;20332;-57
2022/02/14 07:02:46;;;;;;;6.03;5.20;;;;;;;-2.31;100.00;96467.94;4969414;28;20727;-52
2022/02/14 07:05:17;;;;;;;4.70;4.20;;;;;;;-2.07;100.00;96481.56;5007598;28;20208;-54
2022/02/14 07:07:45;;;;;;;5.47;4.97;;;;;;;-1.96;100.00;96479.88;4999761;28;20228;-54
2022/02/14 07:10:14;;;;;;;5.50;5.00;;;;;;;-1.85;100.00;96482.44;4990505;28;20259;-55
2022/02/14 07:12:43;;;;;;;5.67;5.27;;;;;;;-1.76;100.00;96484.28;4992542;28;20235;-53
2022/02/14 07:15:11;;;;;;;6.10;5.50;;;;;;;-1.75;100.00;96477.34;4984507;28;20258;-55
2022/02/14 07:17:40;;;;;;;4.90;4.43;;;;;;;-1.76;100.00;96471.28;5003682;28;20197;-51
2022/02/14 07:20:10;;;;;;;4.83;4.43;;;;;;;-1.61;100.00;96477.03;4951461;28;20315;-55
2022/02/14 07:22:39;;;;;;;4.73;4.40;;;;;;;-1.51;100.00;96473.69;5003425;28;20294;-52
2022/02/14 07:25:08;;;;;;;5.20;4.77;;;;;;;-1.43;100.00;96473.03;4998813;28;20212;-53
2022/02/14 07:27:38;;;;;;;6.37;5.07;;;;;;;-1.54;100.00;96464.38;4982344;28;20547;-51
2022/02/14 07:30:07;;;;;;;5.10;4.70;;;;;;;-1.39;100.00;96466.63;4991805;28;20234;-56
2022/02/14 07:32:36;;;;;;;5.50;5.00;;;;;;;-1.19;100.00;96460.63;5003422;28;20231;-52
2022/02/14 07:35:05;;;;;;;5.30;4.50;;;;;;;-1.12;100.00;96465.31;4947507;28;20343;-57
2022/02/14 07:37:35;;;;;;;4.70;4.27;;;;;;;-0.98;100.00;96470.16;5000205;28;21144;-50
2022/02/14 07:40:04;;;;;;;6.03;4.63;;;;;;;-0.99;100.00;96463.31;4997879;28;20293;-55
2022/02/14 07:42:32;;;;;;;6.30;5.47;;;;;;;-0.69;100.00;96456.47;4993669;28;21162;-53
2022/02/14 07:45:01;;;;;;;4.77;4.37;;;;;;;-0.60;100.00;96465.28;4977192;28;20704;-56
2022/02/14 07:47:29;;;;;;;4.27;3.97;;;;;;;-0.42;100.00;96464.63;5005995;28;20280;-50
2022/02/14 07:49:57;;;;;;;5.20;4.80;;;;;;;-0.28;100.00;96468.63;4968032;28;20925;-51
2022/02/14 07:52:26;;;;;;;6.20;4.67;;;;;;;-0.17;100.00;96469.34;5005532;28;20247;-52
2022/02/14 07:54:55;;;;;;;5.53;5.00;;;;;;;-0.13;100.00;96461.28;5000695;28;20239;-48
2022/02/14 07:57:23;;;;;;;6.63;4.87;;;;;;;-0.09;100.00;96467.84;4995031;28;20286;-50
2022/02/14 07:59:52;;;;;;;4.40;4.10;;;;;;;0.14;100.00;96461.44;4951393;28;20309;-51
2022/02/14 08:02:20;;;;;;;8.97;4.40;;;;;;;0.26;100.00;96467.34;5004298;28;21192;-54
2022/02/14 08:04:49;;;;;;;4.80;4.23;;;;;;;0.33;100.00;96466.81;4959178;28;20298;-50
2022/02/14 08:07:17;;;;;;;4.73;4.33;;;;;;;0.51;100.00;96466.94;5005858;28;20287;-55
2022/02/14 08:09:45;;;;;;;5.13;4.73;;;;;;;0.66;100.00;96460.31;5002095;28;20749;-59
2022/02/14 08:12:15;;;;;;;5.17;4.67;;;;;;;0.79;100.00;96465.25;5004941;28;20264;-52
2022/02/14 08:14:45;;;;;;;4.57;4.20;;;;;;;0.88;100.00;96462.75;4982385;28;20270;-52
2022/02/14 08:17:13;;;;;;;4.50;4.20;;;;;;;0.96;100.00;96463.69;5008368;28;20287;-59
2022/02/14 08:19:42;;;;;;;4.43;4.07;;;;;;;1.14;100.00;96452.53;4959231;28;20216;-56
2022/02/14 08:22:10;;;;;;;4.40;4.00;;;;;;;1.18;100.00;96453.91;4973176;28;20225;-51
2022/02/14 08:24:39;;;;;;;5.53;3.70;;;;;;;1.27;100.00;96449.59;5002552;28;20295;-56
2022/02/14 08:27:09;;;;;;;6.07;4.23;;;;;;;1.48;100.00;96451.16;4990247;28;20239;-52
2022/02/14 08:29:39;;;;;;;7.97;3.83;;;;;;;1.67;100.00;96455.47;4989735;28;20644;-52
2022/02/14 08:32:08;;;;;;;6.63;4.27;;;;;;;1.67;100.00;96447.63;4994078;28;20314;-53
2022/02/14 08:34:37;;;;;;;6.37;4.13;;;;;;;1.78;100.00;96441.38;4976799;28;20300;-52
2022/02/14 08:37:05;;;;;;;3.60;3.30;;;;;;;1.82;100.00;96446.16;4988111;28;20216;-52
2022/02/14 08:39:33;;;;;;;4.60;4.20;;;;;;;2.04;100.00;96436.25;4998410;28;20428;-54
2022/02/14 08:42:02;;;;;;;6.37;3.90;;;;;;;2.17;100.00;96433.28;4986014;28;20310;-52
2022/02/14 08:44:30;;;;;;;3.63;3.43;;;;;;;2.29;100.00;96434.69;4998365;28;20201;-53
2022/02/14 08:47:00;;;;;;;3.97;3.67;;;;;;;2.37;100.00;96433.09;4985569;28;20391;-55
2022/02/14 08:49:34;;;;;;;4.10;3.70;;;;;;;2.52;100.00;96436.00;5002472;28;20606;-56
2022/02/14 08:52:03;;;;;;;3.90;3.70;;;;;;;2.59;100.00;96426.56;4947468;28;20263;-54
2022/02/14 08:54:31;;;;;;;3.50;3.20;;;;;;;2.82;100.00;96429.50;5004123;28;20688;-53
2022/02/14 08:57:00;;;;;;;4.17;3.37;;;;;;;2.73;100.00;96414.72;4974382;28;20225;-54
2022/02/14 08:59:28;;;;;;;3.50;3.30;;;;;;;2.96;100.00;96417.66;5000103;28;20278;-57
2022/02/14 09:01:59;;;;;;;3.13;2.83;;;;;;;2.99;100.00;96416.53;4975758;28;20229;-58
2022/02/14 09:04:28;;;;;;;4.17;3.43;;;;;;;3.04;100.00;96414.28;5006302;28;20200;-54
2022/02/14 09:06:57;;;;;;;3.10;2.83;;;;;;;3.31;100.00;96417.69;4969705;28;20223;-52
2022/02/14 09:09:30;;;;;;;4.13;3.47;;;;;;;3.08;100.00;96418.22;5010636;28;20298;-51
2022/02/14 09:12:00;;;;;;;3.63;3.33;;;;;;;2.84;100.00;96422.34;4990643;28;20243;-54
2022/02/14 09:14:28;;;;;;;3.83;3.53;;;;;;;2.89;100.00;96414.84;5004513;28;20232;-50
2022/02/14 09:16:57;;;;;;;4.40;4.00;;;;;;;3.15;100.00;96406.13;4992287;28;20346;-55
2022/02/14 09:19:29;;;;;;;5.07;3.77;;;;;;;3.17;100.00;96406.00;5001112;28;20207;-47
2022/02/14 09:21:57;;;;;;;3.70;3.37;;;;;;;3.10;100.00;96402.38;4996682;28;20236;-54
2022/02/14 09:24:26;;;;;;;4.47;4.07;;;;;;;3.45;95.79;96409.22;4981658;28;20266;-53
2022/02/14 09:26:57;;;;;;;6.00;4.20;;;;;;;3.51;96.33;96404.31;5002055;28;20231;-56
2022/02/14 09:29:25;;;;;;;3.80;3.50;;;;;;;3.50;92.67;96393.03;4988110;28;20201;-50
2022/02/14 09:31:54;;;;;;;4.10;3.70;;;;;;;3.64;95.75;96399.47;4994092;28;20699;-53
2022/02/14 09:34:23;;;;;;;5.63;3.87;;;;;;;3.76;96.14;96389.50;5005028;28;20353;-52
2022/02/14 09:36:53;;;;;;;3.60;3.30;;;;;;;3.81;91.16;96383.78;5005706;28;20316;-50
2022/02/14 09:39:22;;;;;;;3.73;3.53;;;;;;;3.89;83.94;96391.66;4969505;28;20941;-53
2022/02/14 09:41:51;;;;;;;3.40;3.10;;;;;;;4.10;81.49;96398.25;5008870;28;20311;-52
2022/02/14 09:44:21;;;;;;;3.70;3.40;;;;;;;4.22;83.77;96391.69;4984333;28;20469;-51
2022/02/14 09:46:49;;;;;;;4.00;3.70;;;;;;;4.04;77.45;96394.44;5003224;28;20216;-53
2022/02/14 09:49:17;;;;;;;3.73;3.43;;;;;;;4.34;77.08;96390.38;4987886;28;20783;-49
2022/02/14 09:51:46;;;;;;;3.40;3.10;;;;;;;4.40;76.80;96393.34;5004760;28;20291;-52
2022/02/14 09:54:16;;;;;;;5.13;4.70;;;;;;;4.51;69.50;96394.78;4970056;28;20963;-52
2022/02/14 09:56:44;;;;;;;3.17;2.97;;;;;;;4.49;66.27;96398.41;5001333;28;20259;-52
2022/02/14 09:59:14;;;;;;;3.50;3.20;;;;;;;4.71;73.18;96403.13;4983295;28;20743;-52
2022/02/14 10:01:44;;;;;;;6.70;3.10;;;;;;;4.69;66.54;96405.94;5006950;28;20255;-52
2022/02/14 10:04:12;;;;;;;3.60;3.33;;;;;;;4.68;67.23;96400.84;4986497;28;20209;-48
2022/02/14 10:06:43;;;;;;;3.80;3.30;;;;;;;4.60;65.44;96396.44;5004953;28;20236;-52
2022/02/14 10:09:13;;;;;;;3.33;3.03;;;;;;;4.57;63.27;96397.59;4963841;28;20204;-54
2022/02/14 10:14:37;;;;;;;3.10;2.80;;;;;;;4.93;63.44;96402.44;5067195;27;21920;-50
2022/02/14 10:17:08;;;;;;;3.67;3.37;;;;;;;5.16;58.41;96400.91;5068338;28;20233;-58
2022/02/14 10:19:39;;;;;;;3.60;3.30;;;;;;;5.45;62.04;96391.63;5051816;28;20305;-52
2022/02/14 10:22:09;;;;;;;4.40;4.03;;;;;;;5.71;57.75;96396.56;5057745;28;20281;-55
2022/02/14 10:24:41;;;;;;;6.13;5.53;;;;;;;5.76;57.95;96396.88;5011009;28;20298;-56
2022/02/14 10:27:11;;;;;;;5.73;4.03;;;;;;;5.78;64.03;96392.25;5042355;28;20724;-56
2022/02/14 10:29:41;;;;;;;3.57;3.27;;;;;;;6.05;54.85;96397.22;5042570;28;20642;-53
2022/02/14 10:32:15;;;;;;;3.60;3.37;;;;;;;6.29;56.45;96403.31;5031100;28;20314;-56
2022/02/14 10:34:44;;;;;;;3.43;3.23;;;;;;;6.20;54.30;96392.03;5032836;28;20718;-53
2022/02/14 10:37:14;;;;;;;3.60;3.33;;;;;;;6.37;56.90;96384.81;5045092;28;20231;-52
2022/02/14 10:39:44;;;;;;;3.80;3.50;;;;;;;6.31;54.61;96394.25;5047555;28;20832;-52
2022/02/14 10:42:14;;;;;;;3.43;3.23;;;;;;;6.04;55.58;96396.41;5005858;28;20224;-52
2022/02/14 10:47:31;;;;;;;4.93;3.70;;;;;;;6.30;55.91;96390.00;5040460;28;20291;-55
2022/02/14 10:50:07;;;;;;;4.63;3.53;;;;;;;6.19;62.18;96382.50;5040791;28;20202;-57
2022/02/14 10:52:37;;;;;;;3.60;3.30;;;;;;;6.20;59.93;96378.88;5044395;28;20234;-51
2022/02/14 10:55:07;;;;;;;7.07;4.00;;;;;;;6.04;62.13;96372.75;5024574;28;20808;-54
2022/02/14 10:57:37;;;;;;;3.60;3.30;;;;;;;6.06;66.92;96377.81;5045333;28;20207;-51
2022/02/14 11:00:10;;;;;;;4.07;3.67;;;;;;;6.17;61.92;96373.97;5043238;28;20886;-57
2022/02/14 11:02:39;;;;;;;4.53;3.80;;;;;;;6.30;61.23;96373.38;5031937;28;20231;-51
2022/02/14 11:05:08;;;;;;;3.87;3.60;;;;;;;6.19;62.04;96358.81;5034329;28;20625;-54
2022/02/14 11:07:37;;;;;;;4.53;4.13;;;;;;;6.35;61.80;96363.97;5045018;28;20230;-50
2022/02/14 11:10:09;;;;;;;4.03;3.73;;;;;;;5.83;65.38;96343.59;5021818;28;20894;-53
2022/02/14 11:12:40;;;;;;;4.03;3.73;;;;;;;5.78;70.42;96354.66;5044674;28;20251;-53
2022/02/14 11:15:10;;;;;;;4.23;3.83;;;;;;;5.67;66.98;96349.78;5046390;28;20551;-56
2022/02/14 11:17:46;;;;;;;3.40;3.20;;;;;;;6.05;66.21;96349.88;5032424;28;20280;-55
2022/02/14 11:20:16;;;;;;;3.23;3.03;;;;;;;6.43;65.23;96346.47;5042466;28;20297;-53
2022/02/14 11:22:45;;;;;;;5.13;4.63;;;;;;;6.68;62.92;96340.97;5032005;28;20227;-51
2022/02/14 11:25:23;;;;;;;4.17;3.47;;;;;;;6.80;59.90;96344.81;5039994;28;20653;-53
2022/02/14 11:27:57;;;;;;;3.50;3.20;;;;;;;6.85;57.52;96341.63;4996497;28;20239;-52
2022/02/14 11:30:29;;;;;;;4.30;3.90;;;;;;;6.92;59.32;96340.72;5034788;28;20298;-55
2022/02/14 11:33:10;;;;;;;3.97;3.63;;;;;;;6.58;56.84;96336.78;5030415;28;20313;-59
2022/02/14 11:35:39;;;;;;;3.60;3.40;;;;;;;6.43;56.25;96328.84;5033304;28;20280;-55
2022/02/14 11:38:09;;;;;;;3.53;3.33;;;;;;;6.33;59.48;96323.88;5014095;28;20219;-54
2022/02/14 11:40:40;;;;;;;3.93;3.63;;;;;;;6.25;56.46;96321.31;5033503;28;20208;-52
2022/02/14 11:43:10;;;;;;;3.70;3.40;;;;;;;6.41;56.19;96311.63;4989617;28;20310;-57